sensor_id;sensor_type;location;lat;lon;timestamp;P1;durP1;ratioP1;P2;durP2;ratioP2
50731;SDS011;36700;50.488;2.544;2023-07-16T00:00:02;8.48;;;2.80;;
50731;SDS011;36700;50.488;2.544;2023-07-16T00:02:30;8.25;;;2.60;;
50731;SDS011;36700;50.488;2.544;2023-07-16T00:04:56;8.23;;;2.88;;
50731;SDS011;36700;50.488;2.544;2023-07-16T00:07:22;8.43;;;2.83;;
50731;SDS011;36700;50.488;2.544;2023-07-16T00:09:47;7.75;;;3.03;;
50731;SDS011;36700;50.488;2.544;2023-07-16T00:12:13;6.78;;;2.53;;
50731;SDS011;36700;50.488;2.544;2023-07-16T00:14:39;8.50;;;3.10;;
50731;SDS011;36700;50.488;2.544;2023-07-16T00:17:05;5.60;;;2.58;;
50731;SDS011;36700;50.488;2.544;2023-07-16T00:19:31;7.40;;;2.92;;
50731;SDS011;36700;50.488;2.544;2023-07-16T00:21:57;8.18;;;2.95;;
50731;SDS011;36700;50.488;2.544;2023-07-16T00:24:23;5.95;;;2.90;;
50731;SDS011;36700;50.488;2.544;2023-07-16T00:26:49;6.20;;;2.60;;
50731;SDS011;36700;50.488;2.544;2023-07-16T00:29:14;8.75;;;2.80;;
50731;SDS011;36700;50.488;2.544;2023-07-16T00:31:40;6.72;;;2.60;;
50731;SDS011;36700;50.488;2.544;2023-07-16T00:34:06;6.85;;;2.83;;
50731;SDS011;36700;50.488;2.544;2023-07-16T00:36:32;7.78;;;2.70;;
50731;SDS011;36700;50.488;2.544;2023-07-16T00:38:58;7.32;;;3.03;;
50731;SDS011;36700;50.488;2.544;2023-07-16T00:41:24;6.57;;;2.97;;
50731;SDS011;36700;50.488;2.544;2023-07-16T00:43:50;9.23;;;3.28;;
50731;SDS011;36700;50.488;2.544;2023-07-16T00:46:16;9.15;;;3.40;;
50731;SDS011;36700;50.488;2.544;2023-07-16T00:48:43;7.30;;;3.08;;
50731;SDS011;36700;50.488;2.544;2023-07-16T00:51:09;6.88;;;3.00;;
50731;SDS011;36700;50.488;2.544;2023-07-16T00:53:35;7.43;;;3.28;;
50731;SDS011;36700;50.488;2.544;2023-07-16T00:56:01;7.55;;;3.17;;
50731;SDS011;36700;50.488;2.544;2023-07-16T00:58:27;9.38;;;3.50;;
50731;SDS011;36700;50.488;2.544;2023-07-16T01:00:53;6.75;;;2.92;;
50731;SDS011;36700;50.488;2.544;2023-07-16T01:03:19;7.93;;;3.50;;
50731;SDS011;36700;50.488;2.544;2023-07-16T01:05:47;6.47;;;3.05;;
50731;SDS011;36700;50.488;2.544;2023-07-16T01:08:21;8.38;;;3.45;;
50731;SDS011;36700;50.488;2.544;2023-07-16T01:10:56;9.50;;;3.15;;
50731;SDS011;36700;50.488;2.544;2023-07-16T01:13:23;8.70;;;3.30;;
50731;SDS011;36700;50.488;2.544;2023-07-16T01:15:50;7.20;;;3.05;;
50731;SDS011;36700;50.488;2.544;2023-07-16T01:18:16;9.40;;;3.67;;
50731;SDS011;36700;50.488;2.544;2023-07-16T01:20:42;7.25;;;3.30;;
50731;SDS011;36700;50.488;2.544;2023-07-16T01:23:11;7.35;;;3.15;;
50731;SDS011;36700;50.488;2.544;2023-07-16T01:31:22;10.40;;;3.65;;
50731;SDS011;36700;50.488;2.544;2023-07-16T01:33:49;6.95;;;3.30;;
50731;SDS011;36700;50.488;2.544;2023-07-16T01:36:16;7.35;;;3.50;;
50731;SDS011;36700;50.488;2.544;2023-07-16T01:38:44;11.60;;;3.75;;
50731;SDS011;36700;50.488;2.544;2023-07-16T01:41:10;7.22;;;3.63;;
50731;SDS011;36700;50.488;2.544;2023-07-16T01:43:36;7.75;;;3.65;;
50731;SDS011;36700;50.488;2.544;2023-07-16T01:46:02;8.02;;;3.47;;
50731;SDS011;36700;50.488;2.544;2023-07-16T01:51:04;9.82;;;4.13;;
50731;SDS011;36700;50.488;2.544;2023-07-16T01:53:30;7.68;;;3.47;;
50731;SDS011;36700;50.488;2.544;2023-07-16T01:55:57;8.82;;;3.90;;
50731;SDS011;36700;50.488;2.544;2023-07-16T01:58:23;7.47;;;3.35;;
50731;SDS011;36700;50.488;2.544;2023-07-16T02:00:49;10.45;;;4.22;;
50731;SDS011;36700;50.488;2.544;2023-07-16T02:03:15;9.40;;;4.07;;
50731;SDS011;36700;50.488;2.544;2023-07-16T02:05:41;8.13;;;3.83;;
50731;SDS011;36700;50.488;2.544;2023-07-16T02:08:07;7.97;;;3.83;;
50731;SDS011;36700;50.488;2.544;2023-07-16T02:10:33;8.38;;;3.67;;
50731;SDS011;36700;50.488;2.544;2023-07-16T02:12:59;9.88;;;4.43;;
50731;SDS011;36700;50.488;2.544;2023-07-16T02:15:25;9.23;;;4.20;;
50731;SDS011;36700;50.488;2.544;2023-07-16T02:17:51;8.35;;;3.90;;
50731;SDS011;36700;50.488;2.544;2023-07-16T02:20:17;9.50;;;4.00;;
50731;SDS011;36700;50.488;2.544;2023-07-16T02:22:43;10.35;;;4.45;;
50731;SDS011;36700;50.488;2.544;2023-07-16T02:25:09;10.43;;;4.53;;
50731;SDS011;36700;50.488;2.544;2023-07-16T02:27:35;9.35;;;4.28;;
50731;SDS011;36700;50.488;2.544;2023-07-16T02:30:01;9.32;;;4.07;;
50731;SDS011;36700;50.488;2.544;2023-07-16T02:32:27;9.93;;;4.32;;
50731;SDS011;36700;50.488;2.544;2023-07-16T02:34:52;9.20;;;4.35;;
50731;SDS011;36700;50.488;2.544;2023-07-16T02:37:20;9.98;;;3.95;;
50731;SDS011;36700;50.488;2.544;2023-07-16T02:39:45;11.32;;;4.50;;
50731;SDS011;36700;50.488;2.544;2023-07-16T02:42:14;8.63;;;4.00;;
50731;SDS011;36700;50.488;2.544;2023-07-16T02:44:40;9.68;;;4.45;;
50731;SDS011;36700;50.488;2.544;2023-07-16T02:47:13;8.30;;;4.15;;
50731;SDS011;36700;50.488;2.544;2023-07-16T02:49:39;9.25;;;4.28;;
50731;SDS011;36700;50.488;2.544;2023-07-16T02:52:05;9.10;;;4.20;;
50731;SDS011;36700;50.488;2.544;2023-07-16T02:54:32;10.18;;;4.57;;
50731;SDS011;36700;50.488;2.544;2023-07-16T02:56:58;9.38;;;4.38;;
50731;SDS011;36700;50.488;2.544;2023-07-16T02:59:24;8.93;;;4.53;;
50731;SDS011;36700;50.488;2.544;2023-07-16T03:01:50;10.80;;;5.00;;
50731;SDS011;36700;50.488;2.544;2023-07-16T03:04:16;8.13;;;4.28;;
50731;SDS011;36700;50.488;2.544;2023-07-16T03:06:42;9.38;;;4.35;;
50731;SDS011;36700;50.488;2.544;2023-07-16T03:09:08;9.43;;;4.50;;
50731;SDS011;36700;50.488;2.544;2023-07-16T03:11:34;10.73;;;4.72;;
50731;SDS011;36700;50.488;2.544;2023-07-16T03:14:00;11.10;;;4.70;;
50731;SDS011;36700;50.488;2.544;2023-07-16T03:16:26;11.73;;;4.88;;
50731;SDS011;36700;50.488;2.544;2023-07-16T03:18:52;11.00;;;4.35;;
50731;SDS011;36700;50.488;2.544;2023-07-16T03:21:19;9.35;;;4.93;;
50731;SDS011;36700;50.488;2.544;2023-07-16T03:23:44;10.38;;;5.10;;
50731;SDS011;36700;50.488;2.544;2023-07-16T03:26:11;10.32;;;4.80;;
50731;SDS011;36700;50.488;2.544;2023-07-16T03:28:37;12.40;;;5.00;;
50731;SDS011;36700;50.488;2.544;2023-07-16T03:31:03;9.93;;;4.72;;
50731;SDS011;36700;50.488;2.544;2023-07-16T03:33:28;13.20;;;5.05;;
50731;SDS011;36700;50.488;2.544;2023-07-16T03:35:54;10.55;;;5.28;;
50731;SDS011;36700;50.488;2.544;2023-07-16T03:38:20;9.82;;;5.03;;
50731;SDS011;36700;50.488;2.544;2023-07-16T03:40:47;11.45;;;5.18;;
50731;SDS011;36700;50.488;2.544;2023-07-16T03:43:15;11.27;;;4.85;;
50731;SDS011;36700;50.488;2.544;2023-07-16T03:45:42;10.50;;;4.78;;
50731;SDS011;36700;50.488;2.544;2023-07-16T03:48:08;10.38;;;4.82;;
50731;SDS011;36700;50.488;2.544;2023-07-16T03:50:34;10.77;;;5.25;;
50731;SDS011;36700;50.488;2.544;2023-07-16T03:53:01;11.60;;;5.07;;
50731;SDS011;36700;50.488;2.544;2023-07-16T03:55:28;12.50;;;5.25;;
50731;SDS011;36700;50.488;2.544;2023-07-16T03:57:55;10.55;;;5.10;;
50731;SDS011;36700;50.488;2.544;2023-07-16T04:00:21;10.23;;;4.93;;
50731;SDS011;36700;50.488;2.544;2023-07-16T04:02:47;12.00;;;5.35;;
50731;SDS011;36700;50.488;2.544;2023-07-16T04:05:13;12.88;;;5.40;;
50731;SDS011;36700;50.488;2.544;2023-07-16T04:07:39;10.98;;;5.47;;
50731;SDS011;36700;50.488;2.544;2023-07-16T04:10:05;12.63;;;5.50;;
50731;SDS011;36700;50.488;2.544;2023-07-16T04:12:31;10.32;;;5.03;;
50731;SDS011;36700;50.488;2.544;2023-07-16T04:14:58;11.43;;;5.40;;
50731;SDS011;36700;50.488;2.544;2023-07-16T04:17:24;10.93;;;5.65;;
50731;SDS011;36700;50.488;2.544;2023-07-16T04:19:51;12.73;;;5.57;;
50731;SDS011;36700;50.488;2.544;2023-07-16T04:22:17;11.82;;;5.53;;
50731;SDS011;36700;50.488;2.544;2023-07-16T04:24:43;10.63;;;5.18;;
50731;SDS011;36700;50.488;2.544;2023-07-16T04:27:09;11.43;;;5.90;;
50731;SDS011;36700;50.488;2.544;2023-07-16T04:29:35;12.43;;;5.30;;
50731;SDS011;36700;50.488;2.544;2023-07-16T04:32:01;11.68;;;5.80;;
50731;SDS011;36700;50.488;2.544;2023-07-16T04:34:28;11.70;;;5.93;;
50731;SDS011;36700;50.488;2.544;2023-07-16T04:36:54;12.15;;;6.10;;
50731;SDS011;36700;50.488;2.544;2023-07-16T04:39:20;12.35;;;5.95;;
50731;SDS011;36700;50.488;2.544;2023-07-16T04:41:46;12.80;;;5.60;;
50731;SDS011;36700;50.488;2.544;2023-07-16T04:44:12;10.98;;;5.88;;
50731;SDS011;36700;50.488;2.544;2023-07-16T04:46:38;11.38;;;6.00;;
50731;SDS011;36700;50.488;2.544;2023-07-16T04:49:04;11.52;;;5.72;;
50731;SDS011;36700;50.488;2.544;2023-07-16T04:51:31;15.13;;;6.45;;
50731;SDS011;36700;50.488;2.544;2023-07-16T04:53:57;10.73;;;5.68;;
50731;SDS011;36700;50.488;2.544;2023-07-16T04:56:23;11.95;;;5.97;;
50731;SDS011;36700;50.488;2.544;2023-07-16T04:58:49;12.05;;;5.82;;
50731;SDS011;36700;50.488;2.544;2023-07-16T05:01:15;12.43;;;6.18;;
50731;SDS011;36700;50.488;2.544;2023-07-16T05:03:41;12.13;;;6.43;;
50731;SDS011;36700;50.488;2.544;2023-07-16T05:06:07;11.00;;;5.90;;
50731;SDS011;36700;50.488;2.544;2023-07-16T05:08:33;11.80;;;5.60;;
50731;SDS011;36700;50.488;2.544;2023-07-16T05:10:59;12.05;;;6.38;;
50731;SDS011;36700;50.488;2.544;2023-07-16T05:13:25;16.02;;;6.38;;
50731;SDS011;36700;50.488;2.544;2023-07-16T05:15:51;10.82;;;6.10;;
50731;SDS011;36700;50.488;2.544;2023-07-16T05:18:17;12.13;;;6.43;;
50731;SDS011;36700;50.488;2.544;2023-07-16T05:20:43;11.95;;;5.93;;
50731;SDS011;36700;50.488;2.544;2023-07-16T05:23:09;10.93;;;6.15;;
50731;SDS011;36700;50.488;2.544;2023-07-16T05:25:35;12.32;;;5.93;;
50731;SDS011;36700;50.488;2.544;2023-07-16T05:28:01;13.20;;;6.43;;
50731;SDS011;36700;50.488;2.544;2023-07-16T05:30:27;12.23;;;6.22;;
50731;SDS011;36700;50.488;2.544;2023-07-16T05:32:53;12.95;;;6.20;;
50731;SDS011;36700;50.488;2.544;2023-07-16T05:35:19;14.65;;;6.88;;
50731;SDS011;36700;50.488;2.544;2023-07-16T05:37:45;13.57;;;6.32;;
50731;SDS011;36700;50.488;2.544;2023-07-16T05:40:11;11.60;;;6.32;;
50731;SDS011;36700;50.488;2.544;2023-07-16T05:42:37;13.82;;;6.40;;
50731;SDS011;36700;50.488;2.544;2023-07-16T05:45:09;12.48;;;6.45;;
50731;SDS011;36700;50.488;2.544;2023-07-16T05:47:41;11.60;;;6.03;;
50731;SDS011;36700;50.488;2.544;2023-07-16T05:50:07;13.27;;;6.57;;
50731;SDS011;36700;50.488;2.544;2023-07-16T05:52:33;12.95;;;6.78;;
50731;SDS011;36700;50.488;2.544;2023-07-16T05:54:59;13.10;;;6.32;;
50731;SDS011;36700;50.488;2.544;2023-07-16T05:57:25;13.45;;;6.63;;
50731;SDS011;36700;50.488;2.544;2023-07-16T05:59:51;13.10;;;6.70;;
50731;SDS011;36700;50.488;2.544;2023-07-16T06:02:17;11.45;;;5.82;;
50731;SDS011;36700;50.488;2.544;2023-07-16T06:04:43;13.75;;;6.72;;
50731;SDS011;36700;50.488;2.544;2023-07-16T06:07:08;13.18;;;6.22;;
50731;SDS011;36700;50.488;2.544;2023-07-16T06:09:34;13.85;;;6.13;;
50731;SDS011;36700;50.488;2.544;2023-07-16T06:12:00;12.23;;;6.50;;
50731;SDS011;36700;50.488;2.544;2023-07-16T06:14:26;13.07;;;6.82;;
50731;SDS011;36700;50.488;2.544;2023-07-16T06:16:52;13.93;;;6.22;;
50731;SDS011;36700;50.488;2.544;2023-07-16T06:19:18;15.93;;;6.90;;
50731;SDS011;36700;50.488;2.544;2023-07-16T06:21:44;12.65;;;6.55;;
50731;SDS011;36700;50.488;2.544;2023-07-16T06:24:10;11.50;;;6.28;;
50731;SDS011;36700;50.488;2.544;2023-07-16T06:26:36;12.65;;;6.50;;
50731;SDS011;36700;50.488;2.544;2023-07-16T06:29:02;12.30;;;5.97;;
50731;SDS011;36700;50.488;2.544;2023-07-16T06:31:28;13.68;;;6.82;;
50731;SDS011;36700;50.488;2.544;2023-07-16T06:33:54;15.18;;;7.10;;
50731;SDS011;36700;50.488;2.544;2023-07-16T06:36:20;13.10;;;6.57;;
50731;SDS011;36700;50.488;2.544;2023-07-16T06:38:46;15.30;;;6.82;;
50731;SDS011;36700;50.488;2.544;2023-07-16T06:41:12;13.70;;;6.40;;
50731;SDS011;36700;50.488;2.544;2023-07-16T06:43:38;13.18;;;6.72;;
50731;SDS011;36700;50.488;2.544;2023-07-16T06:46:04;12.23;;;6.75;;
50731;SDS011;36700;50.488;2.544;2023-07-16T06:48:30;13.15;;;6.35;;
50731;SDS011;36700;50.488;2.544;2023-07-16T06:50:56;14.68;;;7.07;;
50731;SDS011;36700;50.488;2.544;2023-07-16T06:53:22;12.38;;;6.45;;
50731;SDS011;36700;50.488;2.544;2023-07-16T06:55:48;13.38;;;6.60;;
50731;SDS011;36700;50.488;2.544;2023-07-16T06:58:14;13.75;;;6.57;;
50731;SDS011;36700;50.488;2.544;2023-07-16T07:00:40;15.43;;;7.00;;
50731;SDS011;36700;50.488;2.544;2023-07-16T07:03:06;14.90;;;6.85;;
50731;SDS011;36700;50.488;2.544;2023-07-16T07:05:32;13.68;;;6.45;;
50731;SDS011;36700;50.488;2.544;2023-07-16T07:07:58;12.38;;;6.30;;
50731;SDS011;36700;50.488;2.544;2023-07-16T07:10:24;13.30;;;7.20;;
50731;SDS011;36700;50.488;2.544;2023-07-16T07:12:50;13.63;;;6.70;;
50731;SDS011;36700;50.488;2.544;2023-07-16T07:15:16;14.80;;;6.75;;
50731;SDS011;36700;50.488;2.544;2023-07-16T07:17:42;12.82;;;6.30;;
50731;SDS011;36700;50.488;2.544;2023-07-16T07:20:08;14.50;;;6.47;;
50731;SDS011;36700;50.488;2.544;2023-07-16T07:22:35;16.10;;;6.55;;
50731;SDS011;36700;50.488;2.544;2023-07-16T07:25:00;13.07;;;6.63;;
50731;SDS011;36700;50.488;2.544;2023-07-16T07:27:26;14.80;;;6.68;;
50731;SDS011;36700;50.488;2.544;2023-07-16T07:29:52;14.73;;;6.82;;
50731;SDS011;36700;50.488;2.544;2023-07-16T07:32:21;13.15;;;6.13;;
50731;SDS011;36700;50.488;2.544;2023-07-16T07:34:47;13.68;;;6.15;;
50731;SDS011;36700;50.488;2.544;2023-07-16T07:37:14;13.18;;;6.30;;
50731;SDS011;36700;50.488;2.544;2023-07-16T07:39:40;13.27;;;6.60;;
50731;SDS011;36700;50.488;2.544;2023-07-16T07:42:06;13.32;;;6.50;;
50731;SDS011;36700;50.488;2.544;2023-07-16T07:44:32;12.85;;;6.53;;
50731;SDS011;36700;50.488;2.544;2023-07-16T07:46:58;13.15;;;6.55;;
50731;SDS011;36700;50.488;2.544;2023-07-16T07:49:24;15.38;;;6.30;;
50731;SDS011;36700;50.488;2.544;2023-07-16T07:51:50;13.95;;;6.50;;
50731;SDS011;36700;50.488;2.544;2023-07-16T07:54:16;13.02;;;5.93;;
50731;SDS011;36700;50.488;2.544;2023-07-16T07:56:42;12.98;;;6.40;;
50731;SDS011;36700;50.488;2.544;2023-07-16T07:59:08;13.18;;;6.72;;
50731;SDS011;36700;50.488;2.544;2023-07-16T08:01:34;13.48;;;6.70;;
50731;SDS011;36700;50.488;2.544;2023-07-16T08:04:00;12.75;;;6.15;;
50731;SDS011;36700;50.488;2.544;2023-07-16T08:06:25;14.95;;;6.75;;
50731;SDS011;36700;50.488;2.544;2023-07-16T08:08:52;15.00;;;6.25;;
50731;SDS011;36700;50.488;2.544;2023-07-16T08:11:17;11.48;;;6.00;;
50731;SDS011;36700;50.488;2.544;2023-07-16T08:13:43;11.80;;;6.05;;
50731;SDS011;36700;50.488;2.544;2023-07-16T08:16:09;12.50;;;6.15;;
50731;SDS011;36700;50.488;2.544;2023-07-16T08:18:35;13.52;;;5.90;;
50731;SDS011;36700;50.488;2.544;2023-07-16T08:21:01;12.57;;;5.95;;
50731;SDS011;36700;50.488;2.544;2023-07-16T08:23:27;11.65;;;6.22;;
50731;SDS011;36700;50.488;2.544;2023-07-16T08:25:53;13.30;;;5.80;;
50731;SDS011;36700;50.488;2.544;2023-07-16T08:28:19;12.05;;;5.95;;
50731;SDS011;36700;50.488;2.544;2023-07-16T08:30:48;10.98;;;5.30;;
50731;SDS011;36700;50.488;2.544;2023-07-16T08:33:14;12.48;;;5.72;;
50731;SDS011;36700;50.488;2.544;2023-07-16T08:35:40;12.05;;;5.43;;
50731;SDS011;36700;50.488;2.544;2023-07-16T08:38:07;10.52;;;5.45;;
50731;SDS011;36700;50.488;2.544;2023-07-16T08:40:39;10.38;;;5.07;;
50731;SDS011;36700;50.488;2.544;2023-07-16T08:43:05;10.02;;;5.28;;
50731;SDS011;36700;50.488;2.544;2023-07-16T08:45:34;10.02;;;4.80;;
50731;SDS011;36700;50.488;2.544;2023-07-16T08:48:05;10.65;;;5.63;;
50731;SDS011;36700;50.488;2.544;2023-07-16T08:50:32;10.45;;;5.30;;
50731;SDS011;36700;50.488;2.544;2023-07-16T08:53:00;12.27;;;5.60;;
50731;SDS011;36700;50.488;2.544;2023-07-16T08:55:27;13.00;;;5.13;;
50731;SDS011;36700;50.488;2.544;2023-07-16T08:57:53;10.57;;;5.40;;
50731;SDS011;36700;50.488;2.544;2023-07-16T09:00:19;10.98;;;5.25;;
50731;SDS011;36700;50.488;2.544;2023-07-16T09:02:46;9.68;;;5.03;;
50731;SDS011;36700;50.488;2.544;2023-07-16T09:05:12;9.93;;;4.47;;
50731;SDS011;36700;50.488;2.544;2023-07-16T09:07:40;10.05;;;4.97;;
50731;SDS011;36700;50.488;2.544;2023-07-16T09:10:06;11.93;;;4.70;;
50731;SDS011;36700;50.488;2.544;2023-07-16T09:12:32;9.50;;;4.60;;
50731;SDS011;36700;50.488;2.544;2023-07-16T09:14:58;12.57;;;5.20;;
50731;SDS011;36700;50.488;2.544;2023-07-16T09:17:24;11.55;;;4.88;;
50731;SDS011;36700;50.488;2.544;2023-07-16T09:19:51;11.85;;;5.18;;
50731;SDS011;36700;50.488;2.544;2023-07-16T09:22:17;8.95;;;4.60;;
50731;SDS011;36700;50.488;2.544;2023-07-16T09:24:47;8.95;;;4.65;;
50731;SDS011;36700;50.488;2.544;2023-07-16T09:27:13;9.38;;;4.32;;
50731;SDS011;36700;50.488;2.544;2023-07-16T09:29:40;11.13;;;4.80;;
50731;SDS011;36700;50.488;2.544;2023-07-16T09:32:06;9.90;;;4.72;;
50731;SDS011;36700;50.488;2.544;2023-07-16T09:34:32;11.40;;;5.25;;
50731;SDS011;36700;50.488;2.544;2023-07-16T09:36:58;11.00;;;5.05;;
50731;SDS011;36700;50.488;2.544;2023-07-16T09:39:26;10.10;;;4.68;;
50731;SDS011;36700;50.488;2.544;2023-07-16T09:41:53;11.43;;;5.40;;
50731;SDS011;36700;50.488;2.544;2023-07-16T09:44:19;8.77;;;4.78;;
50731;SDS011;36700;50.488;2.544;2023-07-16T09:46:45;10.25;;;4.57;;
50731;SDS011;36700;50.488;2.544;2023-07-16T09:49:14;9.73;;;4.65;;
50731;SDS011;36700;50.488;2.544;2023-07-16T09:51:40;11.32;;;4.47;;
50731;SDS011;36700;50.488;2.544;2023-07-16T09:54:08;10.50;;;4.80;;
50731;SDS011;36700;50.488;2.544;2023-07-16T09:56:39;9.73;;;4.38;;
50731;SDS011;36700;50.488;2.544;2023-07-16T09:59:11;9.35;;;4.45;;
50731;SDS011;36700;50.488;2.544;2023-07-16T10:01:39;10.00;;;4.60;;
50731;SDS011;36700;50.488;2.544;2023-07-16T10:04:10;11.18;;;4.43;;
50731;SDS011;36700;50.488;2.544;2023-07-16T10:06:49;8.73;;;4.47;;
50731;SDS011;36700;50.488;2.544;2023-07-16T10:09:35;10.02;;;4.32;;
50731;SDS011;36700;50.488;2.544;2023-07-16T10:12:11;10.20;;;4.60;;
50731;SDS011;36700;50.488;2.544;2023-07-16T10:14:44;10.65;;;4.28;;
50731;SDS011;36700;50.488;2.544;2023-07-16T10:17:12;8.95;;;3.83;;
50731;SDS011;36700;50.488;2.544;2023-07-16T10:20:12;9.63;;;4.43;;
50731;SDS011;36700;50.488;2.544;2023-07-16T10:22:42;9.32;;;4.30;;
50731;SDS011;36700;50.488;2.544;2023-07-16T10:27:44;9.60;;;4.28;;
50731;SDS011;36700;50.488;2.544;2023-07-16T10:30:11;9.95;;;4.32;;
50731;SDS011;36700;50.488;2.544;2023-07-16T10:32:37;10.43;;;4.10;;
50731;SDS011;36700;50.488;2.544;2023-07-16T10:35:04;8.95;;;4.25;;
50731;SDS011;36700;50.488;2.544;2023-07-16T10:37:31;10.48;;;4.20;;
50731;SDS011;36700;50.488;2.544;2023-07-16T10:39:58;10.30;;;4.10;;
50731;SDS011;36700;50.488;2.544;2023-07-16T10:42:25;8.85;;;3.63;;
50731;SDS011;36700;50.488;2.544;2023-07-16T10:44:57;8.60;;;3.97;;
50731;SDS011;36700;50.488;2.544;2023-07-16T10:47:25;9.70;;;4.43;;
50731;SDS011;36700;50.488;2.544;2023-07-16T10:49:55;9.88;;;4.10;;
50731;SDS011;36700;50.488;2.544;2023-07-16T10:52:21;9.90;;;4.05;;
50731;SDS011;36700;50.488;2.544;2023-07-16T10:54:48;7.45;;;3.60;;
50731;SDS011;36700;50.488;2.544;2023-07-16T10:57:23;10.18;;;4.05;;
50731;SDS011;36700;50.488;2.544;2023-07-16T10:59:56;7.68;;;3.47;;
50731;SDS011;36700;50.488;2.544;2023-07-16T11:02:24;9.93;;;3.88;;
50731;SDS011;36700;50.488;2.544;2023-07-16T11:04:51;8.48;;;3.78;;
50731;SDS011;36700;50.488;2.544;2023-07-16T11:07:21;9.70;;;3.92;;
50731;SDS011;36700;50.488;2.544;2023-07-16T11:09:51;9.70;;;4.13;;
50731;SDS011;36700;50.488;2.544;2023-07-16T11:12:19;9.40;;;3.78;;
50731;SDS011;36700;50.488;2.544;2023-07-16T11:14:47;8.48;;;3.72;;
50731;SDS011;36700;50.488;2.544;2023-07-16T11:17:18;7.35;;;3.67;;
50731;SDS011;36700;50.488;2.544;2023-07-16T11:19:46;9.20;;;3.95;;
50731;SDS011;36700;50.488;2.544;2023-07-16T11:22:13;7.32;;;3.30;;
50731;SDS011;36700;50.488;2.544;2023-07-16T11:24:43;9.05;;;3.92;;
50731;SDS011;36700;50.488;2.544;2023-07-16T11:27:17;9.80;;;3.88;;
50731;SDS011;36700;50.488;2.544;2023-07-16T11:29:50;9.23;;;3.60;;
50731;SDS011;36700;50.488;2.544;2023-07-16T11:32:30;8.98;;;3.50;;
50731;SDS011;36700;50.488;2.544;2023-07-16T11:34:58;9.48;;;3.88;;
50731;SDS011;36700;50.488;2.544;2023-07-16T11:37:25;9.07;;;3.88;;
50731;SDS011;36700;50.488;2.544;2023-07-16T11:39:56;8.85;;;3.92;;
50731;SDS011;36700;50.488;2.544;2023-07-16T11:45:14;7.88;;;3.50;;
50731;SDS011;36700;50.488;2.544;2023-07-16T11:47:42;7.15;;;3.25;;
50731;SDS011;36700;50.488;2.544;2023-07-16T11:50:08;8.38;;;3.80;;
50731;SDS011;36700;50.488;2.544;2023-07-16T11:52:34;8.57;;;3.70;;
50731;SDS011;36700;50.488;2.544;2023-07-16T11:55:00;7.93;;;3.83;;
50731;SDS011;36700;50.488;2.544;2023-07-16T11:57:27;7.22;;;3.42;;
50731;SDS011;36700;50.488;2.544;2023-07-16T11:59:53;8.80;;;3.53;;
50731;SDS011;36700;50.488;2.544;2023-07-16T12:02:19;9.13;;;3.53;;
50731;SDS011;36700;50.488;2.544;2023-07-16T12:04:49;8.95;;;3.22;;
50731;SDS011;36700;50.488;2.544;2023-07-16T12:07:14;7.97;;;3.70;;
50731;SDS011;36700;50.488;2.544;2023-07-16T12:09:40;6.25;;;3.42;;
50731;SDS011;36700;50.488;2.544;2023-07-16T12:12:06;9.52;;;3.72;;
50731;SDS011;36700;50.488;2.544;2023-07-16T12:14:32;5.93;;;3.13;;
50731;SDS011;36700;50.488;2.544;2023-07-16T12:16:58;7.22;;;3.30;;
50731;SDS011;36700;50.488;2.544;2023-07-16T12:19:27;6.20;;;3.15;;
50731;SDS011;36700;50.488;2.544;2023-07-16T12:21:57;8.07;;;3.25;;
50731;SDS011;36700;50.488;2.544;2023-07-16T12:24:25;9.02;;;3.33;;
50731;SDS011;36700;50.488;2.544;2023-07-16T12:26:52;7.43;;;3.08;;
50731;SDS011;36700;50.488;2.544;2023-07-16T12:29:18;6.65;;;3.10;;
50731;SDS011;36700;50.488;2.544;2023-07-16T12:31:44;6.50;;;3.10;;
50731;SDS011;36700;50.488;2.544;2023-07-16T12:34:10;10.45;;;3.72;;
50731;SDS011;36700;50.488;2.544;2023-07-16T12:36:36;7.40;;;3.47;;
50731;SDS011;36700;50.488;2.544;2023-07-16T12:39:02;6.97;;;2.97;;
50731;SDS011;36700;50.488;2.544;2023-07-16T12:41:28;6.95;;;3.17;;
50731;SDS011;36700;50.488;2.544;2023-07-16T12:43:54;7.30;;;3.35;;
50731;SDS011;36700;50.488;2.544;2023-07-16T12:46:20;8.02;;;3.38;;
50731;SDS011;36700;50.488;2.544;2023-07-16T12:48:46;6.95;;;2.88;;
50731;SDS011;36700;50.488;2.544;2023-07-16T12:51:12;7.15;;;3.28;;
50731;SDS011;36700;50.488;2.544;2023-07-16T12:53:38;6.20;;;2.88;;
50731;SDS011;36700;50.488;2.544;2023-07-16T12:56:05;5.93;;;3.10;;
50731;SDS011;36700;50.488;2.544;2023-07-16T12:58:31;8.23;;;3.28;;
50731;SDS011;36700;50.488;2.544;2023-07-16T13:00:57;7.43;;;3.30;;
50731;SDS011;36700;50.488;2.544;2023-07-16T13:03:23;7.68;;;3.20;;
50731;SDS011;36700;50.488;2.544;2023-07-16T13:05:48;5.03;;;2.63;;
50731;SDS011;36700;50.488;2.544;2023-07-16T13:08:14;8.07;;;2.95;;
50731;SDS011;36700;50.488;2.544;2023-07-16T13:10:40;6.32;;;2.88;;
50731;SDS011;36700;50.488;2.544;2023-07-16T13:13:07;6.90;;;2.88;;
50731;SDS011;36700;50.488;2.544;2023-07-16T13:15:33;6.97;;;3.03;;
50731;SDS011;36700;50.488;2.544;2023-07-16T13:17:59;7.03;;;3.08;;
50731;SDS011;36700;50.488;2.544;2023-07-16T13:20:25;6.63;;;3.28;;
50731;SDS011;36700;50.488;2.544;2023-07-16T13:22:51;7.30;;;3.10;;
50731;SDS011;36700;50.488;2.544;2023-07-16T13:25:17;5.43;;;2.90;;
50731;SDS011;36700;50.488;2.544;2023-07-16T13:27:43;6.95;;;3.08;;
50731;SDS011;36700;50.488;2.544;2023-07-16T13:30:09;7.80;;;3.20;;
50731;SDS011;36700;50.488;2.544;2023-07-16T13:32:35;8.85;;;3.10;;
50731;SDS011;36700;50.488;2.544;2023-07-16T13:35:01;7.85;;;3.20;;
50731;SDS011;36700;50.488;2.544;2023-07-16T13:37:28;6.70;;;3.10;;
50731;SDS011;36700;50.488;2.544;2023-07-16T13:39:54;5.65;;;2.80;;
50731;SDS011;36700;50.488;2.544;2023-07-16T13:42:20;6.05;;;2.90;;
50731;SDS011;36700;50.488;2.544;2023-07-16T13:44:46;7.15;;;3.03;;
50731;SDS011;36700;50.488;2.544;2023-07-16T13:47:12;6.03;;;2.90;;
50731;SDS011;36700;50.488;2.544;2023-07-16T13:49:37;8.73;;;3.50;;
50731;SDS011;36700;50.488;2.544;2023-07-16T13:52:03;6.32;;;2.85;;
50731;SDS011;36700;50.488;2.544;2023-07-16T13:54:29;6.70;;;2.80;;
50731;SDS011;36700;50.488;2.544;2023-07-16T13:56:55;6.03;;;2.53;;
50731;SDS011;36700;50.488;2.544;2023-07-16T13:59:21;5.90;;;2.83;;
50731;SDS011;36700;50.488;2.544;2023-07-16T14:01:47;6.72;;;3.00;;
50731;SDS011;36700;50.488;2.544;2023-07-16T14:04:24;8.35;;;3.10;;
50731;SDS011;36700;50.488;2.544;2023-07-16T14:06:50;6.75;;;2.75;;
50731;SDS011;36700;50.488;2.544;2023-07-16T14:09:16;8.75;;;3.10;;
50731;SDS011;36700;50.488;2.544;2023-07-16T14:11:42;5.95;;;2.97;;
50731;SDS011;36700;50.488;2.544;2023-07-16T14:14:09;7.68;;;2.75;;
50731;SDS011;36700;50.488;2.544;2023-07-16T14:16:35;8.50;;;3.08;;
50731;SDS011;36700;50.488;2.544;2023-07-16T14:19:01;7.45;;;2.63;;
50731;SDS011;36700;50.488;2.544;2023-07-16T14:21:28;7.70;;;2.95;;
50731;SDS011;36700;50.488;2.544;2023-07-16T14:23:54;6.63;;;3.00;;
50731;SDS011;36700;50.488;2.544;2023-07-16T14:26:20;10.25;;;3.28;;
50731;SDS011;36700;50.488;2.544;2023-07-16T14:28:46;11.30;;;3.78;;
50731;SDS011;36700;50.488;2.544;2023-07-16T14:31:12;10.68;;;3.33;;
50731;SDS011;36700;50.488;2.544;2023-07-16T14:33:38;8.88;;;3.25;;
50731;SDS011;36700;50.488;2.544;2023-07-16T14:36:04;9.15;;;3.00;;
50731;SDS011;36700;50.488;2.544;2023-07-16T14:38:30;10.77;;;3.05;;
50731;SDS011;36700;50.488;2.544;2023-07-16T14:40:56;12.30;;;3.40;;
50731;SDS011;36700;50.488;2.544;2023-07-16T14:43:22;13.48;;;3.00;;
50731;SDS011;36700;50.488;2.544;2023-07-16T14:45:48;7.40;;;3.08;;
50731;SDS011;36700;50.488;2.544;2023-07-16T14:48:14;12.18;;;3.72;;
50731;SDS011;36700;50.488;2.544;2023-07-16T14:50:40;9.00;;;3.35;;